South Reno (Wolf Run), Nevada Weather observations

Data are for observation ending at time listed.
 Day   Time    Ave.   Ave.  Ave.  Vector   Max.   Stn.    Total    Solar   Ave.  
  of    of     Air    Rel.  Wind   Wind    Wind   Baro.  Precip.   Rad.    Soil  
Year   Day     Temp.  Hum.  Speed  Dir.    Gust   Pres.                    Temp. 
2026   (PST)    F      %     mph   deg.    mph     mb.     in.     W/m2     F   
------------------------------------------------------------------------------
 125    2:20   43.8    89    0.0     0      0.0  99999.0    0.00       1    56.7
 125    2:30   43.9    89    0.0     0      0.0  99999.0    0.00       1    56.7
 125    2:40   44.1    89    1.7    70      4.2  99999.0    0.00       1    56.6
 125    2:50   44.3    89    0.6   100      4.1  99999.0    0.00       1    56.6
 125    3:00   44.4    89    0.0     0      0.0  99999.0    0.00       1    56.6
 125    3:10   44.4    89    0.0     0      0.0  99999.0    0.00       1    56.5
 125    3:20   44.4    89    0.0     0      0.0  99999.0    0.00       1    56.5
 125    3:30   44.4    89    0.0     0      0.0  99999.0    0.00       1    56.5
 125    3:40   44.4    89    0.0     0      0.0  99999.0    0.00       1    56.5
 125    3:50   44.5    89    0.0     0      0.0  99999.0    0.00       1    56.4
 125    4:00   44.5    89    0.0     0      0.0  99999.0    0.00       1    56.4
 125    4:10   44.6    89    0.0     0      0.0  99999.0    0.00       1    56.1
 125    4:20   44.6    89    0.0     0      0.0  99999.0    0.00       1    56.0
 125    4:30   44.6    89    0.0     0      0.0  99999.0    0.00       1    56.0
 125    4:40   44.6    89    0.0     0      0.0  99999.0    0.00       1    56.0
 125    4:50   44.6    89    0.0     0      0.0  99999.0    0.00       1    56.0
 125    5:00   44.6    89    0.0     0      0.0  99999.0    0.00       2    55.9
 125    5:10   44.5    89    0.0     0      0.0  99999.0    0.00       4    55.9
 125    5:20   44.6    89    0.0     0      0.0  99999.0    0.00       7    56.0
 125    5:30   44.8    89    0.2    96      2.1  99999.0    0.00       7    56.0
 125    5:40   45.1    89    0.0    94      0.7  99999.0    0.00       7    56.0
 125    5:50   45.0    89    0.0     0      0.0  99999.0    0.00       7    56.0
 125    6:00   44.8    89    0.0     0      0.0  99999.0    0.00       7    56.0
 125    6:10   44.9    89    0.1   216      1.2  99999.0    0.00       8    56.0
 125    6:20   45.3    89    0.0     0      0.0  99999.0    0.00      12    56.0
 125    6:30   45.7    89    0.0     0      0.0  99999.0    0.00      12    56.0
 125    6:40   45.6    88    0.0     0      0.0  99999.0    0.00      11    56.0
 125    6:50   45.7    88    0.0     0      0.0  99999.0    0.00      11    56.0
 125    7:00   45.6    88    0.0     0      0.0  99999.0    0.00      12    56.0
 125    7:10   45.9    87    0.0   118      0.3  99999.0    0.00      12    56.0
 125    7:20   46.3    87    0.1   148      1.3  99999.0    0.00      12    55.9
 125    7:30   46.4    86    0.3   173      1.8  99999.0    0.00      12    55.9
 125    7:40   46.9    86    0.1   165      1.5  99999.0    0.00      12    55.9
 125    7:50   47.5    85    0.0   155      0.1  99999.0    0.00      12    55.9
 125    8:00   47.9    85    0.1   153      1.2  99999.0    0.00      12    55.9
 125    8:10   47.8    84    0.9   182      3.0  99999.0    0.00      12    55.9
 125    8:20   48.6    83    0.2   128      2.8  99999.0    0.00      12    55.9
 125    8:30   48.9    82    0.6   107      3.9  99999.0    0.00      13    55.9
 125    8:40   49.2    82    0.5   102      3.8  99999.0    0.00      13    55.9
 125    8:50   50.2    81    0.5   114      3.6  99999.0    0.00      14    55.8
 125    9:00   51.3    80    0.8   100      4.1  99999.0    0.00      15    55.8
 125    9:10   51.1    78    0.7    98      4.2  99999.0    0.00      15    55.8
 125    9:20   51.5    74    0.5   198      2.0  99999.0    0.00      15    55.8
 125    9:30   52.8    74    0.2   141      3.1  99999.0    0.00      16    55.9
 125    9:40   53.9    70    0.5   106      3.9  99999.0    0.00      16    55.9
 125    9:50   55.0    68    0.4   105      2.2  99999.0    0.00      18    55.9
 125   10:00   56.2    64    1.4   184      3.2  99999.0    0.00      19    55.9
 125   10:10   57.0    64    2.8   117      7.4  99999.0    0.00      17    56.0
 125   10:20   57.0    63    2.5    98      6.6  99999.0    0.00      19    56.1
 125   10:30   58.4    58    1.1   156      4.4  99999.0    0.00      21    56.0
 125   10:40   61.7    55    0.9   118      3.7  99999.0    0.00      22    56.0
 125   10:50   61.3    54    1.8    87      5.0  99999.0    0.00      21    56.1
 125   11:00   60.1    57    2.7    79      6.8  99999.0    0.00      21    56.3
 125   11:10   60.2    54    2.8    51      6.9  99999.0    0.00      20    56.5
 125   11:20   60.0    55    1.6    24      6.0  99999.0    0.00      21    56.6
 125   11:30   59.7    54    2.6    16      7.7  99999.0    0.00      17    56.9
 125   11:40   60.6    55    2.7    62      8.3  99999.0    0.00      20    57.2
 125   11:50   61.8    51    2.2    34      6.4  99999.0    0.00      20    57.3
 125   12:00   62.5    52    2.4    34      6.9  99999.0    0.00      18    57.5
 125   12:10   59.2    53    2.7     4      7.7  99999.0    0.00      15    57.9
 125   12:20   61.6    52    0.7   352      3.6  99999.0    0.00      19    58.0
 125   12:30   64.9    47    1.1    88      4.3  99999.0    0.00      22    58.2
 125   12:40   66.0    41    1.7    10      4.7  99999.0    0.00      22    58.3
 125   12:50   63.1    44    1.8   183      5.5  99999.0    0.00      20    58.7
 125   13:00   65.3    43    2.2   352      7.5  99999.0    0.00      21    58.8
 125   13:10   65.5    41    2.0   268      8.5  99999.0    0.00      21    59.1
 125   13:20   64.9    41    1.9   359      6.2  99999.0    0.00      21    59.3
 125   13:30   64.9    42    2.1     0      7.1  99999.0    0.00      18    59.7
 125   13:40   67.0    39    1.6    61      6.9  99999.0    0.00      20    59.9
 125   13:50   66.5    36    3.7    59      7.1  99999.0    0.00      18    60.2
 125   14:00   65.4    38    1.9    92      6.5  99999.0    0.00      17    60.6
 125   14:10   68.5    38    1.2   119      4.3  99999.0    0.00      19    60.7
 125   14:20   68.8    35    2.4    87      6.4  99999.0    0.00      19    61.0
 125   14:30   68.7    35    1.5    46      4.3  99999.0    0.00      20    61.2
 125   14:40   69.4    33    1.8    84      6.6  99999.0    0.00      20    61.5
 125   14:50   69.9    32    1.1   109      5.6  99999.0    0.00      20    61.8
 125   15:00   71.0    31    1.2    19      5.8  99999.0    0.00      20    62.0
 125   15:10   71.5    30    0.6   109      3.9  99999.0    0.00      18    62.3
 125   15:20   70.8    30    1.9   351      8.3  99999.0    0.00      17    62.5
 125   15:30   68.7    30    2.8   342      7.9  99999.0    0.00      15    62.7
 125   15:40   69.2    31    2.1   291      6.9  99999.0    0.00      18    62.9
 125   15:50   69.4    32    2.9   162      6.1  99999.0    0.00      16    63.1
 125   16:00   71.9    30    1.5   143      4.5  99999.0    0.00      18    63.2
 125   16:10   71.6    28    1.0    44      5.3  99999.0    0.00      16    63.4
 125   16:20   69.9    31    0.4     7      5.4  99999.0    0.00      14    63.6
 125   16:30   68.8    30    1.9     5      5.6  99999.0    0.00      15    63.7
 125   16:40   70.6    28    2.5     4      6.5  99999.0    0.00      17    63.8
 125   16:50   70.8    27    3.1     6      7.3  99999.0    0.00      16    64.0
 125   17:00   70.8    28    2.3    18      5.8  99999.0    0.00      16    64.1
 125   17:10   70.0    29    2.7   337      7.5  99999.0    0.00      13    64.2
 125   17:20   69.1    29    2.9   347      7.6  99999.0    0.00      12    64.3
 125   17:30   69.4    30    2.2     1      7.2  99999.0    0.00      12    64.4
 125   17:40   69.8    28    2.9   341      8.9  99999.0    0.00      11    64.5
 125   17:50   70.0    29    1.2   322      5.4  99999.0    0.00      11    64.5
 125   18:00   70.5    29    0.7   331      4.1  99999.0    0.00      10    64.6
 125   18:10   68.2    32    0.8   334      5.3  99999.0    0.00      11    64.6
 125   18:20   65.7    38    0.8   243      4.9  99999.0    0.00       9    64.7
 125   18:30   63.1    42    6.5   238     10.5  99999.0    0.00       8    64.7
 125   18:40   61.9    44    6.3   232     11.1  99999.0    0.00       7    64.7
 125   18:50   61.3    46    6.1   235      9.1  99999.0    0.00       6    64.7
 125   19:00   60.5    48    6.0   238     10.8  99999.0    0.00       4    64.7
 125   19:10   60.6    48    6.7   237     11.6  99999.0    0.00       2    64.6
 125   19:20   60.6    48    1.9   206      4.5  99999.0    0.00       1    64.6
 125   19:30   59.6    50    2.4   230      8.3  99999.0    0.00       0    64.5
 125   19:40   60.0    48    2.6   238      7.1  99999.0    0.00       0    64.5
 125   19:50   59.0    52    3.9   243      7.7  99999.0    0.00       0    64.4
 125   20:00   58.5    53    3.8   242      8.6  99999.0    0.00       0    64.3
 125   20:10   58.9    52    1.5   190      4.8  99999.0    0.00       0    64.3
 125   20:20   58.8    53    1.9   183      3.8  99999.0    0.00       0    64.2
 125   20:30   58.3    53    1.1   249      6.3  99999.0    0.00       0    64.1
 125   20:40   59.1    51    0.9   239      4.6  99999.0    0.00       0    64.0
 125   20:50   58.4    53    2.1   235      6.4  99999.0    0.00       0    64.0
 125   21:00   58.0    53    3.9   238      6.6  99999.0    0.00       0    63.9
 125   21:10   58.2    53    3.0   239      6.1  99999.0    0.00       0    63.8
 125   21:20   57.3    56    2.9   242      6.6  99999.0    0.00       0    63.7
 125   21:30   57.4    55    3.1   245      6.1  99999.0    0.00       0    63.6
 125   21:40   57.3    55    5.6   243      8.8  99999.0    0.00       0    63.6
 125   21:50   57.1    56    5.7   242      8.5  99999.0    0.00       0    63.5
 125   22:00   57.1    56    5.3   241      8.0  99999.0    0.00       0    63.4
 125   22:10   56.4    57    5.3   243      6.9  99999.0    0.00       0    63.3
 125   22:20   55.9    58    4.9   242      7.1  99999.0    0.00       0    63.3
 125   22:30   55.4    58    5.8   243      9.6  99999.0    0.00       0    63.2
 125   22:40   55.9    58    6.3   243      9.9  99999.0    0.00       0    63.1
 125   22:50   55.3    60    5.8   243     10.1  99999.0    0.00       0    63.0
 125   23:00   55.0    60    5.3   238      8.1  99999.0    0.00       0    63.0
 125   23:10   55.4    58    5.5   239      8.7  99999.0    0.00       0    62.9
 125   23:20   55.6    58    5.4   239      8.0  99999.0    0.00       0    62.8
 125   23:30   55.1    59    5.2   242      8.6  99999.0    0.00       0    62.7
 125   23:40   54.3    61    5.0   241      6.8  99999.0    0.00       0    62.7
 125   23:50   54.3    61    5.1   242      7.7  99999.0    0.00       0    62.6
 126    0:00   54.0    62    5.0   242      7.5  99999.0    0.00       0    62.5
 126    0:10   53.9    62    3.3   245      6.9  99999.0    0.00       0    62.4
 126    0:20   53.8    62    4.0   243      6.9  99999.0    0.00       0    62.3
 126    0:30   53.6    62    4.2   241      6.6  99999.0    0.00       0    62.3
 126    0:40   53.8    62    2.4   241      6.2  99999.0    0.00       0    62.2
 126    0:50   54.1    61    2.2   231      5.1  99999.0    0.00       0    62.1
 126    1:00   54.3    60    2.0   224      4.2  99999.0    0.00       0    62.0
 126    1:10   53.6    61    2.1   238      4.2  99999.0    0.00       0    62.0
 126    1:20   52.5    64    2.3   242      5.2  99999.0    0.00       0    61.9
 126    1:30   52.1    64    2.9   240      5.8  99999.0    0.00       0    61.8
 126    1:40   52.0    65    1.3   244      5.4  99999.0    0.00       0    61.8
 126    1:50   51.6    65    1.8   244      4.9  99999.0    0.00       0    61.7
 126    2:00   50.9    66    1.7   241      3.9  99999.0    0.00       0    61.6
 126    2:10   50.6    67    0.9   243      3.2  99999.0    0.00       0    61.6

Return to South Reno, Nevada graphs page.


Western Regional Climate Center,wrcc@dri.edu